Time,TemperatureF,DewpointF,PressureIn,WindDirection,WindDirectionDegrees,WindSpeedMPH,WindSpeedGustMPH,Humidity,HourlyPrecipIn,Conditions,Clouds,dailyrainin,SoftwareType,DateUTC
2013-05-01 00:02:00,71.6,47.9,30.03,South,172,0.0,3.6,43,0.00,,---,0.00,VWS V14.01,2013-04-30 22:02:00,
2013-05-01 00:06:00,71.4,47.8,30.03,South,172,0.0,3.1,43,0.00,,---,0.00,VWS V14.01,2013-04-30 22:06:00,
2013-05-01 00:12:00,71.4,47.8,30.03,South,172,0.0,0.0,43,0.00,,---,0.00,VWS V14.01,2013-04-30 22:12:00,
2013-05-01 00:17:00,71.2,47.6,30.03,South,172,4.0,5.8,43,0.00,,---,0.00,VWS V14.01,2013-04-30 22:17:00,
2013-05-01 00:22:00,71.2,47.6,30.03,South,172,0.0,2.7,43,0.00,,---,0.00,VWS V14.01,2013-04-30 22:22:00,
2013-05-01 00:27:00,71.1,48.1,30.03,South,172,3.1,3.1,44,0.00,,---,0.00,VWS V14.01,2013-04-30 22:27:00,
2013-05-01 00:32:00,70.9,47.9,30.03,South,172,2.7,3.1,44,0.00,,---,0.00,VWS V14.01,2013-04-30 22:32:00,
2013-05-01 00:37:00,70.7,47.7,30.03,South,172,3.1,3.6,44,0.00,,---,0.00,VWS V14.01,2013-04-30 22:37:00,
2013-05-01 00:42:00,70.7,47.7,30.03,South,172,3.1,3.6,44,0.00,,---,0.00,VWS V14.01,2013-04-30 22:42:00,
2013-05-01 00:47:00,70.5,48.2,30.03,South,173,3.6,4.5,45,0.00,,---,0.00,VWS V14.01,2013-04-30 22:47:00,
2013-05-01 00:52:00,70.3,48.0,30.03,SSE,155,7.4,7.4,45,0.00,,---,0.00,VWS V14.01,2013-04-30 22:52:00,
2013-05-01 00:57:00,70.3,48.0,30.03,South,170,0.0,4.9,45,0.00,,---,0.00,VWS V14.01,2013-04-30 22:57:00,
2013-05-01 01:02:00,70.3,48.0,30.03,South,170,0.0,3.6,45,0.00,,---,0.00,VWS V14.01,2013-04-30 23:02:00,
2013-05-01 01:07:00,70.3,48.0,30.03,South,173,3.6,5.4,45,0.00,,---,0.00,VWS V14.01,2013-04-30 23:07:00,
2013-05-01 01:12:00,70.2,47.8,30.03,South,177,4.0,5.8,45,0.00,,---,0.00,VWS V14.01,2013-04-30 23:12:00,
2013-05-01 01:17:00,70.0,48.3,30.03,South,174,4.0,6.3,46,0.00,,---,0.00,VWS V14.01,2013-04-30 23:17:00,
2013-05-01 01:22:00,70.0,48.3,30.03,South,173,5.8,7.8,46,0.00,,---,0.00,VWS V14.01,2013-04-30 23:22:00,
2013-05-01 01:27:00,69.8,48.1,30.03,SSE,161,4.0,5.8,46,0.00,,---,0.00,VWS V14.01,2013-04-30 23:27:00,
2013-05-01 01:32:00,69.6,48.0,30.03,SSE,168,3.1,5.8,46,0.00,,---,0.00,VWS V14.01,2013-04-30 23:32:00,
2013-05-01 01:37:00,69.4,48.3,30.03,South,179,4.5,5.8,47,0.00,,---,0.00,VWS V14.01,2013-04-30 23:37:00,
2013-05-01 01:42:00,69.3,48.2,30.03,South,171,4.0,5.4,47,0.00,,---,0.00,VWS V14.01,2013-04-30 23:42:00,
2013-05-01 01:47:00,69.1,48.0,30.03,SSE,165,5.8,7.4,47,0.00,,---,0.00,VWS V14.01,2013-04-30 23:47:00,
2013-05-01 01:52:00,68.9,48.4,30.03,South,170,4.9,5.4,48,0.00,,---,0.00,VWS V14.01,2013-04-30 23:52:00,
2013-05-01 01:57:00,68.7,48.3,30.03,South,174,4.5,5.8,48,0.00,,---,0.00,VWS V14.01,2013-04-30 23:57:00,
2013-05-01 02:02:00,68.5,48.6,30.03,South,171,5.8,6.7,49,0.00,,---,0.00,VWS V14.01,2013-05-01 00:02:00,
2013-05-01 02:07:00,68.4,49.0,30.03,SSE,168,5.4,6.9,50,0.00,,---,0.00,VWS V14.01,2013-05-01 00:07:00,
2013-05-01 02:12:00,68.0,48.7,30.03,SSE,155,4.0,4.9,50,0.00,,---,0.00,VWS V14.01,2013-05-01 00:12:00,
2013-05-01 02:17:00,67.8,49.0,30.03,South,176,4.9,6.3,51,0.00,,---,0.00,VWS V14.01,2013-05-01 00:17:00,
2013-05-01 02:21:00,67.6,48.9,30.03,South,174,5.4,6.7,51,0.00,,---,0.00,VWS V14.01,2013-05-01 00:21:00,
2013-05-01 02:26:00,67.6,49.4,30.03,South,176,5.4,5.8,52,0.00,,---,0.00,VWS V14.01,2013-05-01 00:26:00,
2013-05-01 02:31:00,67.5,49.2,30.03,South,175,5.4,6.3,52,0.00,,---,0.00,VWS V14.01,2013-05-01 00:31:00,
2013-05-01 02:36:00,67.5,49.8,30.03,South,172,4.9,6.7,53,0.00,,---,0.00,VWS V14.01,2013-05-01 00:36:00,
2013-05-01 02:41:00,67.3,49.6,30.06,South,178,4.5,5.8,53,0.00,,---,0.00,VWS V14.01,2013-05-01 00:41:00,
2013-05-01 02:46:00,67.3,49.6,30.06,SSE,168,4.0,6.3,53,0.00,,---,0.00,VWS V14.01,2013-05-01 00:46:00,
2013-05-01 02:51:00,67.3,49.6,30.06,South,169,3.6,5.8,53,0.00,,---,0.00,VWS V14.01,2013-05-01 00:51:00,
2013-05-01 02:56:00,67.3,50.1,30.06,South,173,5.4,6.3,54,0.00,,---,0.00,VWS V14.01,2013-05-01 00:56:00,
2013-05-01 03:01:00,67.3,50.1,30.06,SSE,164,6.7,6.9,54,0.00,,---,0.00,VWS V14.01,2013-05-01 01:01:00,
2013-05-01 03:06:00,67.1,49.9,30.06,SSE,154,6.3,6.3,54,0.00,,---,0.00,VWS V14.01,2013-05-01 01:06:00,
2013-05-01 03:11:00,67.1,50.4,30.03,SSE,166,0.0,3.6,55,0.00,,---,0.00,VWS V14.01,2013-05-01 01:11:00,
2013-05-01 03:16:00,66.9,50.2,30.03,South,169,4.9,4.9,55,0.00,,---,0.00,VWS V14.01,2013-05-01 01:16:00,
2013-05-01 03:21:00,67.1,50.4,30.03,SSE,168,3.6,3.6,55,0.00,,---,0.00,VWS V14.01,2013-05-01 01:21:00,
2013-05-01 03:26:00,67.1,49.9,30.06,South,170,0.0,3.1,54,0.00,,---,0.00,VWS V14.01,2013-05-01 01:26:00,
2013-05-01 03:31:00,67.3,50.1,30.06,South,170,0.0,4.0,54,0.00,,---,0.00,VWS V14.01,2013-05-01 01:31:00,
2013-05-01 03:36:00,67.3,50.1,30.06,South,170,2.7,2.7,54,0.00,,---,0.00,VWS V14.01,2013-05-01 01:36:00,
2013-05-01 03:41:00,67.3,49.6,30.03,South,170,0.0,0.0,53,0.00,,---,0.00,VWS V14.01,2013-05-01 01:41:00,
2013-05-01 03:46:00,66.7,50.1,30.03,NW,305,4.5,5.8,55,0.00,,---,0.00,VWS V14.01,2013-05-01 01:46:00,
2013-05-01 03:51:00,66.2,50.1,30.03,WNW,293,0.0,4.9,56,0.00,,---,0.00,VWS V14.01,2013-05-01 01:51:00,
2013-05-01 03:56:00,65.7,50.0,30.03,WNW,293,0.0,0.0,57,0.00,,---,0.00,VWS V14.01,2013-05-01 01:56:00,
2013-05-01 04:01:00,65.3,50.2,30.03,WNW,293,0.0,0.0,58,0.00,,---,0.00,VWS V14.01,2013-05-01 02:01:00,
2013-05-01 04:07:00,64.9,50.3,30.03,WNW,293,0.0,0.0,59,0.00,,---,0.00,VWS V14.01,2013-05-01 02:07:00,
2013-05-01 04:12:00,64.8,50.6,30.06,SE,141,4.5,4.5,60,0.00,,---,0.00,VWS V14.01,2013-05-01 02:12:00,
2013-05-01 04:16:00,65.1,50.9,30.06,SE,141,0.0,0.0,60,0.00,,---,0.00,VWS V14.01,2013-05-01 02:16:00,
2013-05-01 04:22:00,65.1,50.5,30.06,SE,141,0.0,3.1,59,0.00,,---,0.00,VWS V14.01,2013-05-01 02:22:00,
2013-05-01 04:27:00,65.7,50.5,30.06,SE,141,4.9,4.9,58,0.00,,---,0.00,VWS V14.01,2013-05-01 02:27:00,
2013-05-01 04:32:00,66.2,50.5,30.06,SE,143,0.0,4.0,57,0.00,,---,0.00,VWS V14.01,2013-05-01 02:32:00,
2013-05-01 04:37:00,66.2,50.1,30.06,SSE,162,0.0,4.5,56,0.00,,---,0.00,VWS V14.01,2013-05-01 02:37:00,
2013-05-01 04:41:00,66.0,49.9,30.06,South,169,3.6,4.9,56,0.00,,---,0.00,VWS V14.01,2013-05-01 02:41:00,
2013-05-01 04:47:00,66.0,49.9,30.06,South,169,4.5,5.4,56,0.00,,---,0.00,VWS V14.01,2013-05-01 02:47:00,
2013-05-01 04:52:00,66.4,49.7,30.06,South,170,4.5,4.5,55,0.00,,---,0.00,VWS V14.01,2013-05-01 02:52:00,
2013-05-01 04:57:00,66.6,49.4,30.06,South,171,4.9,6.3,54,0.00,,---,0.00,VWS V14.01,2013-05-01 02:57:00,
2013-05-01 05:02:00,66.9,49.2,30.06,South,171,6.3,6.3,53,0.00,,---,0.00,VWS V14.01,2013-05-01 03:02:00,
2013-05-01 05:07:00,67.3,48.5,30.06,South,172,3.1,3.1,51,0.00,,---,0.00,VWS V14.01,2013-05-01 03:07:00,
2013-05-01 05:12:00,67.3,48.5,30.06,South,172,0.0,2.7,51,0.00,,---,0.00,VWS V14.01,2013-05-01 03:12:00,
2013-05-01 05:17:00,67.1,48.4,30.06,South,173,0.0,3.1,51,0.00,,---,0.00,VWS V14.01,2013-05-01 03:17:00,
2013-05-01 05:22:00,66.7,48.6,30.06,South,173,0.0,0.0,52,0.00,,---,0.00,VWS V14.01,2013-05-01 03:22:00,
2013-05-01 05:27:00,66.6,48.4,30.06,South,173,0.0,0.0,52,0.00,,---,0.00,VWS V14.01,2013-05-01 03:27:00,
2013-05-01 05:32:00,66.6,48.4,30.06,South,173,0.0,0.0,52,0.00,,---,0.00,VWS V14.01,2013-05-01 03:32:00,
2013-05-01 05:37:00,66.6,47.9,30.06,South,173,0.0,0.0,51,0.00,,---,0.00,VWS V14.01,2013-05-01 03:37:00,
2013-05-01 05:42:00,66.6,47.9,30.06,South,173,0.0,0.0,51,0.00,,---,0.00,VWS V14.01,2013-05-01 03:42:00,
2013-05-01 05:47:00,66.6,47.9,30.06,South,173,0.0,0.0,51,0.00,,---,0.00,VWS V14.01,2013-05-01 03:47:00,
2013-05-01 05:52:00,66.6,47.9,30.06,South,173,0.0,0.0,51,0.00,,---,0.00,VWS V14.01,2013-05-01 03:52:00,
2013-05-01 05:57:00,66.4,47.7,30.06,South,173,0.0,0.0,51,0.00,,---,0.00,VWS V14.01,2013-05-01 03:57:00,
2013-05-01 06:01:00,66.2,48.1,30.06,South,173,0.0,0.0,52,0.00,,---,0.00,VWS V14.01,2013-05-01 04:01:00,
2013-05-01 06:02:00,66.2,48.1,30.06,South,173,0.0,0.0,52,0.00,,---,0.00,VWS V14.01,2013-05-01 04:02:00,
2013-05-01 06:07:00,65.8,48.2,30.06,South,173,0.0,0.0,53,0.00,,---,0.00,VWS V14.01,2013-05-01 04:07:00,
2013-05-01 06:12:00,65.7,48.1,30.06,South,173,0.0,0.0,53,0.00,,---,0.00,VWS V14.01,2013-05-01 04:12:00,
2013-05-01 06:17:00,65.7,48.6,30.06,SSW,202,2.7,3.1,54,0.00,,---,0.00,VWS V14.01,2013-05-01 04:17:00,
2013-05-01 06:22:00,65.5,48.9,30.06,South,189,3.1,3.6,55,0.00,,---,0.00,VWS V14.01,2013-05-01 04:22:00,
2013-05-01 06:27:00,64.9,49.4,30.06,South,179,0.0,3.1,57,0.00,,---,0.00,VWS V14.01,2013-05-01 04:27:00,
2013-05-01 06:32:00,64.8,49.7,30.06,South,179,0.0,0.0,58,0.00,,---,0.00,VWS V14.01,2013-05-01 04:32:00,
2013-05-01 06:37:00,64.6,50.0,30.09,South,179,0.0,3.6,59,0.00,,---,0.00,VWS V14.01,2013-05-01 04:37:00,
2013-05-01 06:42:00,64.4,50.2,30.09,South,179,0.0,0.0,60,0.00,,---,0.00,VWS V14.01,2013-05-01 04:42:00,
2013-05-01 06:47:00,64.6,50.8,30.09,South,179,0.0,0.0,61,0.00,,---,0.00,VWS V14.01,2013-05-01 04:47:00,
2013-05-01 06:52:00,64.6,51.3,30.09,South,179,2.7,3.6,62,0.00,,---,0.00,VWS V14.01,2013-05-01 04:52:00,
2013-05-01 06:57:00,64.8,51.5,30.09,South,176,4.0,4.0,62,0.00,,---,0.00,VWS V14.01,2013-05-01 04:57:00,
2013-05-01 07:02:00,64.8,51.9,30.09,South,175,0.0,4.5,63,0.00,,---,0.00,VWS V14.01,2013-05-01 05:02:00,
2013-05-01 07:07:00,65.3,52.4,30.09,South,176,0.0,3.1,63,0.00,,---,0.00,VWS V14.01,2013-05-01 05:07:00,
2013-05-01 07:12:00,65.7,52.3,30.09,South,176,0.0,0.0,62,0.00,,---,0.00,VWS V14.01,2013-05-01 05:12:00,
2013-05-01 07:17:00,66.4,53.0,30.09,South,176,0.0,3.1,62,0.00,,---,0.00,VWS V14.01,2013-05-01 05:17:00,
2013-05-01 07:22:00,66.7,52.9,30.09,South,176,4.0,4.0,61,0.00,,---,0.00,VWS V14.01,2013-05-01 05:22:00,
2013-05-01 07:27:00,67.1,52.8,30.09,South,176,0.0,0.0,60,0.00,,---,0.00,VWS V14.01,2013-05-01 05:27:00,
2013-05-01 07:32:00,67.6,52.8,30.09,South,176,0.0,2.7,59,0.00,,---,0.00,VWS V14.01,2013-05-01 05:32:00,
2013-05-01 07:37:00,68.0,52.7,30.09,South,176,3.1,3.1,58,0.00,,---,0.00,VWS V14.01,2013-05-01 05:37:00,
2013-05-01 07:42:00,68.9,53.5,30.09,South,176,0.0,0.0,58,0.00,,---,0.00,VWS V14.01,2013-05-01 05:42:00,
2013-05-01 07:47:00,69.6,52.8,30.09,South,176,0.0,0.0,55,0.00,,---,0.00,VWS V14.01,2013-05-01 05:47:00,
2013-05-01 07:52:00,70.3,53.4,30.09,South,176,0.0,2.7,55,0.00,,---,0.00,VWS V14.01,2013-05-01 05:52:00,
2013-05-01 07:57:00,71.1,53.1,30.09,South,176,0.0,0.0,53,0.00,,---,0.00,VWS V14.01,2013-05-01 05:57:00,
2013-05-01 08:02:00,71.6,52.5,30.09,South,176,0.0,0.0,51,0.00,,---,0.00,VWS V14.01,2013-05-01 06:02:00,
2013-05-01 08:07:00,71.6,52.0,30.12,South,176,0.0,0.0,50,0.00,,---,0.00,VWS V14.01,2013-05-01 06:07:00,
2013-05-01 08:12:00,72.0,52.3,30.12,South,176,0.0,0.0,50,0.00,,---,0.00,VWS V14.01,2013-05-01 06:12:00,
2013-05-01 08:17:00,72.5,51.7,30.12,South,176,0.0,0.0,48,0.00,,---,0.00,VWS V14.01,2013-05-01 06:17:00,
2013-05-01 08:22:00,72.9,52.0,30.12,South,176,0.0,0.0,48,0.00,,---,0.00,VWS V14.01,2013-05-01 06:22:00,
2013-05-01 08:27:00,73.0,52.2,30.12,South,176,0.0,0.0,48,0.00,,---,0.00,VWS V14.01,2013-05-01 06:27:00,
2013-05-01 08:32:00,73.2,52.9,30.12,South,176,0.0,2.7,49,0.00,,---,0.00,VWS V14.01,2013-05-01 06:32:00,
2013-05-01 08:37:00,73.6,52.7,30.12,South,176,0.0,2.7,48,0.00,,---,0.00,VWS V14.01,2013-05-01 06:37:00,
2013-05-01 08:42:00,74.1,53.2,30.12,SW,224,2.7,4.0,48,0.00,,---,0.00,VWS V14.01,2013-05-01 06:42:00,
2013-05-01 08:47:00,75.0,52.9,30.12,SW,234,0.0,2.7,46,0.00,,---,0.00,VWS V14.01,2013-05-01 06:47:00,
2013-05-01 08:52:00,75.2,51.8,30.12,SW,234,0.0,0.0,44,0.00,,---,0.00,VWS V14.01,2013-05-01 06:52:00,
2013-05-01 08:57:00,75.6,52.1,30.12,SW,235,4.0,4.5,44,0.00,,---,0.00,VWS V14.01,2013-05-01 06:57:00,
2013-05-01 09:02:00,76.1,52.0,30.12,SW,235,3.1,3.1,43,0.00,,---,0.00,VWS V14.01,2013-05-01 07:02:00,
2013-05-01 09:07:00,75.9,51.2,30.12,WSW,246,3.1,3.1,42,0.00,,---,0.00,VWS V14.01,2013-05-01 07:07:00,
2013-05-01 09:12:00,76.6,51.8,30.12,WSW,246,2.7,2.7,42,0.00,,---,0.00,VWS V14.01,2013-05-01 07:12:00,
2013-05-01 09:17:00,76.8,51.4,30.12,WSW,244,2.7,2.7,41,0.00,,---,0.00,VWS V14.01,2013-05-01 07:17:00,
2013-05-01 09:22:00,77.4,52.5,30.12,West,273,2.7,4.0,42,0.00,,---,0.00,VWS V14.01,2013-05-01 07:22:00,
2013-05-01 09:27:00,78.4,52.1,30.12,West,275,3.6,4.0,40,0.00,,---,0.00,VWS V14.01,2013-05-01 07:27:00,
2013-05-01 09:32:00,77.7,52.2,30.12,WNW,289,3.6,4.0,41,0.00,,---,0.00,VWS V14.01,2013-05-01 07:32:00,
2013-05-01 09:37:00,77.9,52.3,30.12,WNW,287,5.4,5.4,41,0.00,,---,0.00,VWS V14.01,2013-05-01 07:37:00,
2013-05-01 09:42:00,78.1,52.5,30.12,WNW,287,3.1,4.9,41,0.00,,---,0.00,VWS V14.01,2013-05-01 07:42:00,
2013-05-01 09:47:00,79.3,53.6,30.12,WNW,287,0.0,0.0,41,0.00,,---,0.00,VWS V14.01,2013-05-01 07:47:00,
2013-05-01 09:52:00,80.1,53.6,30.12,WNW,284,4.0,4.0,40,0.00,,---,0.00,VWS V14.01,2013-05-01 07:52:00,
2013-05-01 09:57:00,79.5,53.1,30.12,SSE,167,0.0,0.0,40,0.00,,---,0.00,VWS V14.01,2013-05-01 07:57:00,
2013-05-01 10:02:00,79.5,53.1,30.12,SW,221,0.0,0.0,40,0.00,,---,0.00,VWS V14.01,2013-05-01 08:02:00,
2013-05-01 10:07:00,80.1,53.6,30.12,SW,221,3.1,3.6,40,0.00,,---,0.00,VWS V14.01,2013-05-01 08:07:00,
2013-05-01 10:12:00,78.6,52.3,30.12,WSW,249,2.7,2.7,40,0.00,,---,0.00,VWS V14.01,2013-05-01 08:12:00,
2013-05-01 10:17:00,78.3,52.0,30.12,WSW,249,2.7,2.7,40,0.00,,---,0.00,VWS V14.01,2013-05-01 08:17:00,
2013-05-01 10:22:00,78.3,52.7,30.12,SSE,164,0.0,2.7,41,0.00,,---,0.00,VWS V14.01,2013-05-01 08:22:00,
2013-05-01 10:27:00,78.1,53.2,30.12,WSW,250,0.0,3.6,42,0.00,,---,0.00,VWS V14.01,2013-05-01 08:27:00,
2013-05-01 10:32:00,78.4,53.5,30.12,SSW,211,0.0,2.7,42,0.00,,---,0.00,VWS V14.01,2013-05-01 08:32:00,
2013-05-01 10:37:00,79.0,54.0,30.12,SSW,210,2.7,2.7,42,0.00,,---,0.00,VWS V14.01,2013-05-01 08:37:00,
2013-05-01 10:42:00,79.5,53.8,30.12,SSE,159,2.7,3.1,41,0.00,,---,0.00,VWS V14.01,2013-05-01 08:42:00,
2013-05-01 10:47:00,79.3,53.6,30.12,SSE,160,4.9,5.4,41,0.00,,---,0.00,VWS V14.01,2013-05-01 08:47:00,
2013-05-01 10:52:00,79.0,53.3,30.12,SSE,160,0.0,2.7,41,0.00,,---,0.00,VWS V14.01,2013-05-01 08:52:00,
2013-05-01 10:57:00,79.2,53.5,30.12,SSE,160,0.0,3.6,41,0.00,,---,0.00,VWS V14.01,2013-05-01 08:57:00,
2013-05-01 11:02:00,79.5,53.8,30.12,West,267,5.4,5.4,41,0.00,,---,0.00,VWS V14.01,2013-05-01 09:02:00,
2013-05-01 11:07:00,80.4,54.6,30.12,WNW,287,0.0,4.5,41,0.00,,---,0.00,VWS V14.01,2013-05-01 09:07:00,
2013-05-01 11:12:00,81.5,54.9,30.12,West,276,2.7,2.7,40,0.00,,---,0.00,VWS V14.01,2013-05-01 09:12:00,
2013-05-01 11:17:00,81.5,54.2,30.12,South,180,3.1,3.6,39,0.00,,---,0.00,VWS V14.01,2013-05-01 09:17:00,
2013-05-01 11:22:00,80.8,53.5,30.12,NNW,328,4.9,5.4,39,0.00,,---,0.00,VWS V14.01,2013-05-01 09:22:00,
2013-05-01 11:27:00,79.2,52.8,30.12,NNW,327,2.7,3.6,40,0.00,,---,0.00,VWS V14.01,2013-05-01 09:27:00,
2013-05-01 11:32:00,79.2,52.8,30.12,NNW,327,0.0,0.0,40,0.00,,---,0.00,VWS V14.01,2013-05-01 09:32:00,
2013-05-01 11:37:00,79.9,53.4,30.12,WNW,295,3.1,4.5,40,0.00,,---,0.00,VWS V14.01,2013-05-01 09:37:00,
2013-05-01 11:42:00,80.1,53.6,30.12,ENE,63,0.0,4.0,40,0.00,,---,0.00,VWS V14.01,2013-05-01 09:42:00,
2013-05-01 11:47:00,80.2,54.4,30.12,West,281,4.0,4.5,41,0.00,,---,0.00,VWS V14.01,2013-05-01 09:47:00,
2013-05-01 11:52:00,80.4,54.6,30.12,South,172,3.6,4.5,41,0.00,,---,0.00,VWS V14.01,2013-05-01 09:52:00,
2013-05-01 11:57:00,80.6,54.8,30.12,West,274,6.3,6.3,41,0.00,,---,0.00,VWS V14.01,2013-05-01 09:57:00,
2013-05-01 12:02:00,81.3,55.4,30.12,West,268,0.0,3.6,41,0.00,,---,0.00,VWS V14.01,2013-05-01 10:02:00,
2013-05-01 12:07:00,81.3,54.7,30.12,SE,134,2.7,2.7,40,0.00,,---,0.00,VWS V14.01,2013-05-01 10:07:00,
2013-05-01 12:12:00,80.8,54.2,30.12,SE,128,2.7,3.1,40,0.00,,---,0.00,VWS V14.01,2013-05-01 10:12:00,
2013-05-01 12:17:00,80.8,54.2,30.12,WNW,294,4.9,4.9,40,0.00,,---,0.00,VWS V14.01,2013-05-01 10:17:00,
2013-05-01 12:22:00,81.0,54.4,30.09,ENE,76,0.0,4.5,40,0.00,,---,0.00,VWS V14.01,2013-05-01 10:22:00,
2013-05-01 12:27:00,81.1,54.5,30.09,West,271,3.1,5.4,40,0.00,,---,0.00,VWS V14.01,2013-05-01 10:27:00,
2013-05-01 12:32:00,81.5,54.9,30.09,South,176,3.1,4.0,40,0.00,,---,0.00,VWS V14.01,2013-05-01 10:32:00,
2013-05-01 12:37:00,81.7,54.3,30.09,ENE,76,3.6,4.5,39,0.00,,---,0.00,VWS V14.01,2013-05-01 10:37:00,
2013-05-01 12:42:00,81.5,54.2,30.09,ENE,76,3.6,4.5,39,0.00,,---,0.00,VWS V14.01,2013-05-01 10:42:00,
2013-05-01 12:47:00,81.3,53.3,30.09,East,83,0.0,3.6,38,0.00,,---,0.00,VWS V14.01,2013-05-01 10:47:00,
2013-05-01 12:52:00,81.1,53.9,30.09,NW,313,4.9,4.9,39,0.00,,---,0.00,VWS V14.01,2013-05-01 10:52:00,
2013-05-01 12:57:00,81.5,54.2,30.09,West,270,4.5,4.5,39,0.00,,---,0.00,VWS V14.01,2013-05-01 10:57:00,
2013-05-01 13:02:00,81.7,53.6,30.09,SW,233,2.7,3.1,38,0.00,,---,0.00,VWS V14.01,2013-05-01 11:02:00,
2013-05-01 13:07:00,81.3,52.6,30.09,West,270,4.5,5.4,37,0.00,,---,0.00,VWS V14.01,2013-05-01 11:07:00,
2013-05-01 13:12:00,81.9,53.8,30.09,SSW,203,3.6,3.6,38,0.00,,---,0.00,VWS V14.01,2013-05-01 11:12:00,
2013-05-01 13:18:00,82.2,53.4,30.09,SSE,161,2.7,3.1,37,0.00,,---,0.00,VWS V14.01,2013-05-01 11:18:00,
2013-05-01 13:23:00,82.2,52.6,30.09,SSW,192,3.6,4.5,36,0.00,,---,0.00,VWS V14.01,2013-05-01 11:23:00,
2013-05-01 13:28:00,82.4,52.0,30.09,South,178,4.0,4.0,35,0.00,,---,0.00,VWS V14.01,2013-05-01 11:28:00,
2013-05-01 13:33:00,82.4,51.2,30.09,SSE,159,2.7,2.7,34,0.00,,---,0.00,VWS V14.01,2013-05-01 11:33:00,
2013-05-01 13:38:00,82.4,50.4,30.09,WNW,282,0.0,5.8,33,0.00,,---,0.00,VWS V14.01,2013-05-01 11:38:00,
2013-05-01 13:43:00,82.9,51.7,30.09,WNW,284,6.3,7.8,34,0.00,,---,0.00,VWS V14.01,2013-05-01 11:43:00,
2013-05-01 13:48:00,83.5,51.4,30.09,SSE,157,2.7,3.1,33,0.00,,---,0.00,VWS V14.01,2013-05-01 11:48:00,
2013-05-01 13:53:00,83.5,51.4,30.09,SSE,148,2.7,4.9,33,0.00,,---,0.00,VWS V14.01,2013-05-01 11:53:00,
2013-05-01 13:58:00,83.3,51.2,30.09,SSE,151,2.7,3.1,33,0.00,,---,0.00,VWS V14.01,2013-05-01 11:58:00,
2013-05-01 14:03:00,82.9,50.9,30.09,SSE,157,2.7,2.7,33,0.00,,---,0.00,VWS V14.01,2013-05-01 12:03:00,
2013-05-01 14:08:00,82.9,50.1,30.09,SSW,205,3.1,3.6,32,0.00,,---,0.00,VWS V14.01,2013-05-01 12:08:00,
2013-05-01 14:12:00,82.9,50.1,30.09,WNW,289,3.1,7.8,32,0.00,,---,0.00,VWS V14.01,2013-05-01 12:12:00,
2013-05-01 14:17:00,82.9,50.1,30.09,SE,130,3.1,4.5,32,0.00,,---,0.00,VWS V14.01,2013-05-01 12:17:00,
2013-05-01 14:22:00,82.9,50.1,30.09,SSE,156,2.7,4.9,32,0.00,,---,0.00,VWS V14.01,2013-05-01 12:22:00,
2013-05-01 14:27:00,82.8,49.9,30.09,SSE,158,0.0,3.1,32,0.00,,---,0.00,VWS V14.01,2013-05-01 12:27:00,
2013-05-01 14:33:00,82.9,49.2,30.09,SSE,159,0.0,2.7,31,0.00,,---,0.00,VWS V14.01,2013-05-01 12:33:00,
2013-05-01 14:38:00,82.9,50.1,30.09,SSE,159,4.5,4.5,32,0.00,,---,0.00,VWS V14.01,2013-05-01 12:38:00,
2013-05-01 14:43:00,83.1,50.2,30.09,SSE,162,0.0,4.5,32,0.00,,---,0.00,VWS V14.01,2013-05-01 12:43:00,
2013-05-01 14:48:00,83.1,50.2,30.09,WSW,254,0.0,4.5,32,0.00,,---,0.00,VWS V14.01,2013-05-01 12:48:00,
2013-05-01 14:53:00,83.5,49.7,30.09,West,278,6.3,6.3,31,0.00,,---,0.00,VWS V14.01,2013-05-01 12:53:00,
2013-05-01 14:58:00,83.8,50.0,30.09,South,175,0.0,4.0,31,0.00,,---,0.00,VWS V14.01,2013-05-01 12:58:00,
2013-05-01 15:03:00,83.7,49.8,30.09,South,180,2.7,3.1,31,0.00,,---,0.00,VWS V14.01,2013-05-01 13:03:00,
2013-05-01 15:08:00,83.5,49.7,30.06,South,180,0.0,0.0,31,0.00,,---,0.00,VWS V14.01,2013-05-01 13:08:00,
2013-05-01 15:13:00,83.3,50.4,30.06,SSE,166,0.0,4.5,32,0.00,,---,0.00,VWS V14.01,2013-05-01 13:13:00,
2013-05-01 15:17:00,83.1,51.1,30.06,SSE,161,2.7,4.9,33,0.00,,---,0.00,VWS V14.01,2013-05-01 13:17:00,
2013-05-01 15:22:00,82.9,50.9,30.06,SSE,163,3.6,4.5,33,0.00,,---,0.00,VWS V14.01,2013-05-01 13:22:00,
2013-05-01 15:27:00,82.8,50.8,30.06,SSE,165,3.6,4.0,33,0.00,,---,0.00,VWS V14.01,2013-05-01 13:27:00,
2013-05-01 15:33:00,82.9,51.7,30.06,SSE,165,4.9,4.9,34,0.00,,---,0.00,VWS V14.01,2013-05-01 13:33:00,
2013-05-01 15:38:00,83.1,51.1,30.06,SSW,192,0.0,3.6,33,0.00,,---,0.00,VWS V14.01,2013-05-01 13:38:00,
2013-05-01 15:43:00,83.1,51.1,30.06,SSE,156,2.7,2.7,33,0.00,,---,0.00,VWS V14.01,2013-05-01 13:43:00,
2013-05-01 15:48:00,83.3,51.2,30.06,SSE,156,3.1,5.4,33,0.00,,---,0.00,VWS V14.01,2013-05-01 13:48:00,
2013-05-01 15:53:00,83.1,51.1,30.06,SSE,157,3.6,3.6,33,0.00,,---,0.00,VWS V14.01,2013-05-01 13:53:00,
2013-05-01 15:58:00,83.3,50.4,30.06,SSE,161,0.0,3.6,32,0.00,,---,0.00,VWS V14.01,2013-05-01 13:58:00,
2013-05-01 16:03:00,83.3,50.4,30.06,SSE,165,0.0,4.5,32,0.00,,---,0.00,VWS V14.01,2013-05-01 14:03:00,
2013-05-01 16:08:00,83.5,48.8,30.06,SE,137,2.7,3.1,30,0.00,,---,0.00,VWS V14.01,2013-05-01 14:08:00,
2013-05-01 16:13:00,83.5,48.8,30.06,SSE,164,4.5,5.8,30,0.00,,---,0.00,VWS V14.01,2013-05-01 14:13:00,
2013-05-01 16:18:00,83.7,49.0,30.06,West,265,7.8,7.8,30,0.00,,---,0.00,VWS V14.01,2013-05-01 14:18:00,
2013-05-01 16:23:00,84.0,49.3,30.06,SSE,148,0.0,4.0,30,0.00,,---,0.00,VWS V14.01,2013-05-01 14:23:00,
2013-05-01 16:28:00,83.8,49.1,30.06,South,180,0.0,4.0,30,0.00,,---,0.00,VWS V14.01,2013-05-01 14:28:00,
2013-05-01 16:33:00,83.8,49.1,30.06,SE,126,0.0,4.5,30,0.00,,---,0.00,VWS V14.01,2013-05-01 14:33:00,
2013-05-01 16:38:00,83.7,49.0,30.06,South,175,4.0,5.4,30,0.00,,---,0.00,VWS V14.01,2013-05-01 14:38:00,
2013-05-01 16:43:00,83.5,48.8,30.06,SSE,162,4.5,5.8,30,0.00,,---,0.00,VWS V14.01,2013-05-01 14:43:00,
2013-05-01 16:48:00,83.5,48.8,30.06,SSE,166,3.6,4.9,30,0.00,,---,0.00,VWS V14.01,2013-05-01 14:48:00,
2013-05-01 16:53:00,83.3,48.7,30.06,SSE,165,0.0,4.5,30,0.00,,---,0.00,VWS V14.01,2013-05-01 14:53:00,
2013-05-01 16:58:00,83.3,49.5,30.06,SSE,162,4.5,5.8,31,0.00,,---,0.00,VWS V14.01,2013-05-01 14:58:00,
2013-05-01 17:03:00,83.1,49.4,30.06,SSE,158,0.0,4.0,31,0.00,,---,0.00,VWS V14.01,2013-05-01 15:03:00,
2013-05-01 17:08:00,83.1,49.4,30.06,South,177,6.9,6.9,31,0.00,,---,0.00,VWS V14.01,2013-05-01 15:08:00,
2013-05-01 17:13:00,82.9,49.2,30.06,SW,216,2.7,3.1,31,0.00,,---,0.00,VWS V14.01,2013-05-01 15:13:00,
2013-05-01 17:18:00,83.1,49.4,30.06,SE,133,3.1,3.1,31,0.00,,---,0.00,VWS V14.01,2013-05-01 15:18:00,
2013-05-01 17:23:00,83.1,50.2,30.06,SE,145,0.0,2.7,32,0.00,,---,0.00,VWS V14.01,2013-05-01 15:23:00,
2013-05-01 17:28:00,83.1,50.2,30.06,West,268,0.0,2.7,32,0.00,,---,0.00,VWS V14.01,2013-05-01 15:28:00,
2013-05-01 17:33:00,82.9,50.1,30.06,SW,231,0.0,3.6,32,0.00,,---,0.00,VWS V14.01,2013-05-01 15:33:00,
2013-05-01 17:38:00,82.9,50.1,30.06,SW,228,2.7,3.1,32,0.00,,---,0.00,VWS V14.01,2013-05-01 15:38:00,
2013-05-01 17:43:00,82.9,50.1,30.06,WSW,239,0.0,3.6,32,0.00,,---,0.00,VWS V14.01,2013-05-01 15:43:00,
2013-05-01 17:48:00,82.9,50.1,30.06,West,273,0.0,3.6,32,0.00,,---,0.00,VWS V14.01,2013-05-01 15:48:00,
2013-05-01 17:53:00,82.9,50.1,30.06,West,266,3.1,3.6,32,0.00,,---,0.00,VWS V14.01,2013-05-01 15:53:00,
2013-05-01 17:58:00,82.8,49.1,30.06,SSW,202,2.7,2.7,31,0.00,,---,0.00,VWS V14.01,2013-05-01 15:58:00,
2013-05-01 18:03:00,82.6,49.8,30.06,SSW,203,0.0,2.7,32,0.00,,---,0.00,VWS V14.01,2013-05-01 16:03:00,
2013-05-01 18:08:00,82.6,49.8,30.03,South,189,3.6,3.6,32,0.00,,---,0.00,VWS V14.01,2013-05-01 16:08:00,
2013-05-01 18:13:00,82.4,48.8,30.03,SSE,154,0.0,4.0,31,0.00,,---,0.00,VWS V14.01,2013-05-01 16:13:00,
2013-05-01 18:18:00,82.2,48.6,30.03,SSE,168,0.0,4.9,31,0.00,,---,0.00,VWS V14.01,2013-05-01 16:18:00,
2013-05-01 18:23:00,82.0,48.5,30.03,SSE,168,0.0,2.7,31,0.00,,---,0.00,VWS V14.01,2013-05-01 16:23:00,
2013-05-01 18:28:00,81.9,48.3,30.03,SSW,211,0.0,3.1,31,0.00,,---,0.00,VWS V14.01,2013-05-01 16:28:00,
2013-05-01 18:33:00,81.7,48.1,30.03,SSE,163,2.7,2.7,31,0.00,,---,0.00,VWS V14.01,2013-05-01 16:33:00,
2013-05-01 18:38:00,81.5,48.0,30.03,SSE,163,0.0,3.1,31,0.00,,---,0.00,VWS V14.01,2013-05-01 16:38:00,
2013-05-01 18:43:00,81.5,48.0,30.03,SSE,163,0.0,2.7,31,0.00,,---,0.00,VWS V14.01,2013-05-01 16:43:00,
2013-05-01 18:47:00,81.3,48.7,30.03,SW,227,0.0,0.0,32,0.00,,---,0.00,VWS V14.01,2013-05-01 16:47:00,
2013-05-01 18:53:00,81.3,48.7,30.03,SW,227,2.7,3.1,32,0.00,,---,0.00,VWS V14.01,2013-05-01 16:53:00,
2013-05-01 18:58:00,81.1,48.5,30.03,SW,227,0.0,2.7,32,0.00,,---,0.00,VWS V14.01,2013-05-01 16:58:00,
2013-05-01 19:02:00,81.0,49.2,30.03,SW,227,0.0,0.0,33,0.00,,---,0.00,VWS V14.01,2013-05-01 17:02:00,
2013-05-01 19:08:00,81.0,49.2,30.03,SW,227,2.7,3.1,33,0.00,,---,0.00,VWS V14.01,2013-05-01 17:08:00,
2013-05-01 19:13:00,80.6,48.9,30.03,SW,227,2.7,2.7,33,0.00,,---,0.00,VWS V14.01,2013-05-01 17:13:00,
2013-05-01 19:18:00,80.6,48.9,30.03,SW,227,0.0,0.0,33,0.00,,---,0.00,VWS V14.01,2013-05-01 17:18:00,
2013-05-01 19:23:00,80.4,49.5,30.03,SW,227,0.0,3.6,34,0.00,,---,0.00,VWS V14.01,2013-05-01 17:23:00,
2013-05-01 19:28:00,80.4,49.5,30.03,SW,233,0.0,4.0,34,0.00,,---,0.00,VWS V14.01,2013-05-01 17:28:00,
2013-05-01 19:33:00,80.2,49.3,30.03,SW,233,3.6,3.6,34,0.00,,---,0.00,VWS V14.01,2013-05-01 17:33:00,
2013-05-01 19:38:00,80.1,50.0,30.06,SW,233,0.0,0.0,35,0.00,,---,0.00,VWS V14.01,2013-05-01 17:38:00,
2013-05-01 19:43:00,79.5,49.5,30.06,SW,233,0.0,0.0,35,0.00,,---,0.00,VWS V14.01,2013-05-01 17:43:00,
2013-05-01 19:48:00,79.2,49.9,30.06,SW,233,0.0,0.0,36,0.00,,---,0.00,VWS V14.01,2013-05-01 17:48:00,
2013-05-01 19:52:00,79.0,49.8,30.06,SW,233,0.0,0.0,36,0.00,,---,0.00,VWS V14.01,2013-05-01 17:52:00,
2013-05-01 19:58:00,78.6,50.9,30.06,SW,233,0.0,0.0,38,0.00,,---,0.00,VWS V14.01,2013-05-01 17:58:00,
2013-05-01 20:03:00,78.4,51.5,30.06,SW,233,0.0,0.0,39,0.00,,---,0.00,VWS V14.01,2013-05-01 18:03:00,
2013-05-01 20:08:00,78.1,51.8,30.06,SW,233,0.0,0.0,40,0.00,,---,0.00,VWS V14.01,2013-05-01 18:08:00,
2013-05-01 20:13:00,77.7,52.2,30.06,SW,233,0.0,0.0,41,0.00,,---,0.00,VWS V14.01,2013-05-01 18:13:00,
2013-05-01 20:18:00,77.4,51.8,30.06,SW,233,0.0,0.0,41,0.00,,---,0.00,VWS V14.01,2013-05-01 18:18:00,
2013-05-01 20:23:00,77.2,52.3,30.06,SW,233,2.7,2.7,42,0.00,,---,0.00,VWS V14.01,2013-05-01 18:23:00,
2013-05-01 20:28:00,76.6,52.5,30.06,SW,233,0.0,0.0,43,0.00,,---,0.00,VWS V14.01,2013-05-01 18:28:00,
2013-05-01 20:33:00,76.5,53.0,30.06,SW,233,0.0,0.0,44,0.00,,---,0.00,VWS V14.01,2013-05-01 18:33:00,
2013-05-01 20:38:00,75.9,53.1,30.06,SW,233,0.0,0.0,45,0.00,,---,0.00,VWS V14.01,2013-05-01 18:38:00,
2013-05-01 20:43:00,75.7,52.9,30.06,SW,233,0.0,0.0,45,0.00,,---,0.00,VWS V14.01,2013-05-01 18:43:00,
2013-05-01 20:47:00,75.4,53.8,30.06,SW,233,0.0,0.0,47,0.00,,---,0.00,VWS V14.01,2013-05-01 18:47:00,
2013-05-01 20:52:00,75.0,53.4,30.06,SW,233,0.0,0.0,47,0.00,,---,0.00,VWS V14.01,2013-05-01 18:52:00,
2013-05-01 20:57:00,75.0,54.0,30.06,SW,233,0.0,0.0,48,0.00,,---,0.00,VWS V14.01,2013-05-01 18:57:00,
2013-05-01 21:02:00,74.8,54.4,30.06,SW,233,0.0,0.0,49,0.00,,---,0.00,VWS V14.01,2013-05-01 19:02:00,
2013-05-01 21:07:00,74.8,55.0,30.06,SW,233,2.7,3.1,50,0.00,,---,0.00,VWS V14.01,2013-05-01 19:07:00,
2013-05-01 21:12:00,74.7,54.8,30.06,SW,233,0.0,2.7,50,0.00,,---,0.00,VWS V14.01,2013-05-01 19:12:00,
2013-05-01 21:17:00,74.5,55.2,30.06,SW,233,0.0,3.1,51,0.00,,---,0.00,VWS V14.01,2013-05-01 19:17:00,
2013-05-01 21:22:00,74.3,55.0,30.06,SW,233,0.0,0.0,51,0.00,,---,0.00,VWS V14.01,2013-05-01 19:22:00,
2013-05-01 21:27:00,73.8,55.1,30.06,SW,233,0.0,0.0,52,0.00,,---,0.00,VWS V14.01,2013-05-01 19:27:00,
2013-05-01 21:32:00,73.6,55.4,30.06,SW,233,0.0,2.7,53,0.00,,---,0.00,VWS V14.01,2013-05-01 19:32:00,
2013-05-01 21:37:00,73.2,55.1,30.06,SW,233,0.0,0.0,53,0.00,,---,0.00,VWS V14.01,2013-05-01 19:37:00,
2013-05-01 21:42:00,73.0,55.4,30.06,SW,233,0.0,0.0,54,0.00,,---,0.00,VWS V14.01,2013-05-01 19:42:00,
2013-05-01 21:48:00,72.5,55.4,30.06,SW,233,0.0,0.0,55,0.00,,---,0.00,VWS V14.01,2013-05-01 19:48:00,
2013-05-01 21:52:00,72.0,55.4,30.06,SW,233,0.0,0.0,56,0.00,,---,0.00,VWS V14.01,2013-05-01 19:52:00,
2013-05-01 21:57:00,71.6,55.6,30.06,SW,233,0.0,0.0,57,0.00,,---,0.00,VWS V14.01,2013-05-01 19:57:00,
2013-05-01 22:02:00,71.6,56.1,30.06,SW,233,0.0,0.0,58,0.00,,---,0.00,VWS V14.01,2013-05-01 20:02:00,
2013-05-01 22:08:00,71.4,56.4,30.06,SW,233,0.0,0.0,59,0.00,,---,0.00,VWS V14.01,2013-05-01 20:08:00,
2013-05-01 22:13:00,71.1,56.0,30.06,SW,233,0.0,0.0,59,0.00,,---,0.00,VWS V14.01,2013-05-01 20:13:00,
2013-05-01 22:17:00,70.7,56.2,30.06,SW,233,0.0,0.0,60,0.00,,---,0.00,VWS V14.01,2013-05-01 20:17:00,
2013-05-01 22:22:00,70.5,56.4,30.06,SW,233,2.7,3.1,61,0.00,,---,0.00,VWS V14.01,2013-05-01 20:22:00,
2013-05-01 22:27:00,70.9,57.2,30.06,SW,233,3.1,3.6,62,0.00,,---,0.00,VWS V14.01,2013-05-01 20:27:00,
2013-05-01 22:33:00,70.9,57.2,30.06,SW,233,0.0,0.0,62,0.00,,---,0.00,VWS V14.01,2013-05-01 20:33:00,
2013-05-01 22:37:00,70.5,56.9,30.06,SW,233,3.1,3.6,62,0.00,,---,0.00,VWS V14.01,2013-05-01 20:37:00,
2013-05-01 22:43:00,70.5,56.9,30.06,SW,233,4.0,4.0,62,0.00,,---,0.00,VWS V14.01,2013-05-01 20:43:00,
2013-05-01 22:48:00,70.2,56.5,30.06,SW,233,2.7,2.7,62,0.00,,---,0.00,VWS V14.01,2013-05-01 20:48:00,
2013-05-01 22:52:00,69.4,56.3,30.06,WSW,243,3.6,3.6,63,0.00,,---,0.00,VWS V14.01,2013-05-01 20:52:00,
2013-05-01 22:58:00,69.3,56.6,30.06,NW,325,2.7,4.5,64,0.00,,---,0.00,VWS V14.01,2013-05-01 20:58:00,
2013-05-01 23:02:00,69.6,57.3,30.06,NW,316,0.0,3.1,65,0.00,,---,0.00,VWS V14.01,2013-05-01 21:02:00,
2013-05-01 23:07:00,69.4,57.2,30.06,WNW,297,2.7,4.5,65,0.00,,---,0.00,VWS V14.01,2013-05-01 21:07:00,
2013-05-01 23:12:00,69.3,57.0,30.06,WNW,301,0.0,3.6,65,0.00,,---,0.00,VWS V14.01,2013-05-01 21:12:00,
2013-05-01 23:17:00,68.9,56.7,30.06,WNW,300,0.0,2.7,65,0.00,,---,0.00,VWS V14.01,2013-05-01 21:17:00,
2013-05-01 23:22:00,69.3,57.0,30.06,SE,137,5.4,5.4,65,0.00,,---,0.00,VWS V14.01,2013-05-01 21:22:00,
2013-05-01 23:27:00,69.8,56.7,30.06,SE,137,0.0,0.0,63,0.00,,---,0.00,VWS V14.01,2013-05-01 21:27:00,
2013-05-01 23:32:00,69.8,56.7,30.06,SE,137,0.0,3.1,63,0.00,,---,0.00,VWS V14.01,2013-05-01 21:32:00,
2013-05-01 23:37:00,69.6,56.5,30.06,SE,138,0.0,2.7,63,0.00,,---,0.00,VWS V14.01,2013-05-01 21:37:00,
2013-05-01 23:42:00,69.6,56.5,30.06,WSW,244,0.0,4.9,63,0.00,,---,0.00,VWS V14.01,2013-05-01 21:42:00,
2013-05-01 23:47:00,69.4,55.9,30.06,WSW,244,4.0,4.0,62,0.00,,---,0.00,VWS V14.01,2013-05-01 21:47:00,
2013-05-01 23:52:00,68.7,55.2,30.06,NW,306,4.5,4.5,62,0.00,,---,0.00,VWS V14.01,2013-05-01 21:52:00,
2013-05-01 23:57:00,68.5,55.5,30.06,NW,307,0.0,4.0,63,0.00,,---,0.00,VWS V14.01,2013-05-01 21:57:00,